Terminal Aerodrome Forecast
Issued by NWS Pocatello, ID

Home | Current Version | Previous Version | Text Only | Print | Product List | Glossary On
Versions: 1 2 3 4 5 6 7 8 9 10 11 12 13 14 15 16 17 18 19 20 21 22 23 24 25 26 27 28 29 30 31 32 33 34 35 36
000
FTUS45 KPIH 062336
TAFBYI
TAF
KBYI 062336Z 0700/0724 24015G25KT P6SM VCSH SCT080 BKN160
     FM070300 23010KT P6SM BKN080 BKN180
     FM070700 25008KT P6SM -SHRA SCT015 BKN035 OVC060
     FM071200 26020KT P6SM VCSH BKN025 OVC040
     FM071800 27020G30KT P6SM VCSH BKN035 BKN090=

USA.gov is the U.S. government's official web portal to all federal, state and local government web resources and services.